sensor_id;sensor_type;location;lat;lon;timestamp;pressure;altitude;pressure_sealevel;temperature;humidity
10093;BME280;5085;48.092;11.484;2023-02-19T00:01:35;95603.22;;;10.73;90.47
10093;BME280;5085;48.092;11.484;2023-02-19T00:04:03;95592.72;;;10.72;90.15
10093;BME280;5085;48.092;11.484;2023-02-19T00:06:31;95589.22;;;10.71;90.68
10093;BME280;5085;48.092;11.484;2023-02-19T00:08:58;95587.88;;;10.69;91.42
10093;BME280;5085;48.092;11.484;2023-02-19T00:11:27;95592.44;;;10.68;90.67
10093;BME280;5085;48.092;11.484;2023-02-19T00:13:55;95587.06;;;10.68;91.33
10093;BME280;5085;48.092;11.484;2023-02-19T00:16:24;95585.44;;;10.67;91.30
10093;BME280;5085;48.092;11.484;2023-02-19T00:18:52;95586.25;;;10.68;91.23
10093;BME280;5085;48.092;11.484;2023-02-19T00:21:18;95575.19;;;10.69;91.36
10093;BME280;5085;48.092;11.484;2023-02-19T00:23:49;95571.97;;;10.67;91.26
10093;BME280;5085;48.092;11.484;2023-02-19T00:26:15;95570.63;;;10.70;90.88
10093;BME280;5085;48.092;11.484;2023-02-19T00:28:41;95581.41;;;10.70;91.19
10093;BME280;5085;48.092;11.484;2023-02-19T00:31:14;95583.56;;;10.68;91.31
10093;BME280;5085;48.092;11.484;2023-02-19T00:33:41;95579.78;;;10.69;91.42
10093;BME280;5085;48.092;11.484;2023-02-19T00:36:07;95574.66;;;10.67;91.29
10093;BME280;5085;48.092;11.484;2023-02-19T00:38:37;95574.66;;;10.67;91.93
10093;BME280;5085;48.092;11.484;2023-02-19T00:41:04;95574.09;;;10.65;92.16
10093;BME280;5085;48.092;11.484;2023-02-19T00:43:54;95577.88;;;10.64;91.74
10093;BME280;5085;48.092;11.484;2023-02-19T00:46:26;95575.47;;;10.63;91.88
10093;BME280;5085;48.092;11.484;2023-02-19T00:48:52;95574.38;;;10.64;92.49
10093;BME280;5085;48.092;11.484;2023-02-19T00:51:20;95572.78;;;10.63;91.91
10093;BME280;5085;48.092;11.484;2023-02-19T00:53:46;95563.03;;;10.62;92.87
10093;BME280;5085;48.092;11.484;2023-02-19T00:56:12;95559.81;;;10.60;92.26
10093;BME280;5085;48.092;11.484;2023-02-19T00:58:38;95560.34;;;10.57;92.81
10093;BME280;5085;48.092;11.484;2023-02-19T01:01:05;95555.50;;;10.54;93.74
10093;BME280;5085;48.092;11.484;2023-02-19T01:03:33;95559.00;;;10.54;93.42
10093;BME280;5085;48.092;11.484;2023-02-19T01:05:59;95549.56;;;10.51;93.60
10093;BME280;5085;48.092;11.484;2023-02-19T01:08:26;95551.44;;;10.51;94.14
10093;BME280;5085;48.092;11.484;2023-02-19T01:10:52;95555.47;;;10.48;94.28
10093;BME280;5085;48.092;11.484;2023-02-19T01:13:19;95545.25;;;10.45;94.38
10093;BME280;5085;48.092;11.484;2023-02-19T01:15:45;95548.75;;;10.46;94.03
10093;BME280;5085;48.092;11.484;2023-02-19T01:18:11;95536.59;;;10.43;94.41
10093;BME280;5085;48.092;11.484;2023-02-19T01:20:42;95540.91;;;10.44;94.23
10093;BME280;5085;48.092;11.484;2023-02-19T01:23:09;95544.69;;;10.43;94.69
10093;BME280;5085;48.092;11.484;2023-02-19T01:25:40;95540.91;;;10.44;94.56
10093;BME280;5085;48.092;11.484;2023-02-19T01:28:08;95531.78;;;10.45;94.34
10093;BME280;5085;48.092;11.484;2023-02-19T01:30:35;95529.31;;;10.44;94.33
10093;BME280;5085;48.092;11.484;2023-02-19T01:33:05;95525.03;;;10.43;94.79
10093;BME280;5085;48.092;11.484;2023-02-19T01:35:32;95527.72;;;10.43;94.26
10093;BME280;5085;48.092;11.484;2023-02-19T01:37:58;95526.09;;;10.42;94.82
10093;BME280;5085;48.092;11.484;2023-02-19T01:40:25;95520.97;;;10.40;95.39
10093;BME280;5085;48.092;11.484;2023-02-19T01:42:52;95523.66;;;10.40;94.90
10093;BME280;5085;48.092;11.484;2023-02-19T01:45:26;95522.03;;;10.39;95.40
10093;BME280;5085;48.092;11.484;2023-02-19T01:48:00;95526.09;;;10.37;95.62
10093;BME280;5085;48.092;11.484;2023-02-19T01:50:35;95521.75;;;10.36;95.93
10093;BME280;5085;48.092;11.484;2023-02-19T01:53:04;95511.25;;;10.34;95.46
10093;BME280;5085;48.092;11.484;2023-02-19T01:55:32;95515.84;;;10.34;95.63
10093;BME280;5085;48.092;11.484;2023-02-19T01:58:00;95506.97;;;10.33;95.96
10093;BME280;5085;48.092;11.484;2023-02-19T02:00:26;95516.66;;;10.34;96.40
10093;BME280;5085;48.092;11.484;2023-02-19T02:02:55;95515.84;;;10.34;96.39
10093;BME280;5085;48.092;11.484;2023-02-19T02:07:53;95507.75;;;10.29;96.79
10093;BME280;5085;48.092;11.484;2023-02-19T02:10:38;95513.38;;;10.27;97.17
10093;BME280;5085;48.092;11.484;2023-02-19T02:13:04;95506.38;;;10.26;96.45
10093;BME280;5085;48.092;11.484;2023-02-19T02:15:40;95505.56;;;10.25;95.71
10093;BME280;5085;48.092;11.484;2023-02-19T02:26:55;95496.44;;;10.26;96.37
10093;BME280;5085;48.092;11.484;2023-02-19T02:32:25;95495.63;;;10.26;95.72
10093;BME280;5085;48.092;11.484;2023-02-19T02:35:00;95489.44;;;10.25;95.46
10093;BME280;5085;48.092;11.484;2023-02-19T02:37:33;95479.94;;;10.23;95.42
10093;BME280;5085;48.092;11.484;2023-02-19T02:40:02;95483.25;;;10.25;95.34
10093;BME280;5085;48.092;11.484;2023-02-19T02:42:32;95479.94;;;10.23;97.24
10093;BME280;5085;48.092;11.484;2023-02-19T02:50:58;95479.38;;;10.11;100.00
10093;BME280;5085;48.092;11.484;2023-02-19T02:53:33;95475.03;;;9.99;100.00
10093;BME280;5085;48.092;11.484;2023-02-19T02:56:19;95465.00;;;9.85;100.00
10093;BME280;5085;48.092;11.484;2023-02-19T02:58:47;95454.69;;;9.71;100.00
10093;BME280;5085;48.092;11.484;2023-02-19T03:01:24;95451.97;;;9.61;100.00
10093;BME280;5085;48.092;11.484;2023-02-19T03:04:21;95450.78;;;9.47;100.00
10093;BME280;5085;48.092;11.484;2023-02-19T03:06:49;95451.03;;;9.40;100.00
10093;BME280;5085;48.092;11.484;2023-02-19T03:09:23;95460.09;;;9.29;100.00
10093;BME280;5085;48.092;11.484;2023-02-19T03:11:58;95453.03;;;9.18;100.00
10093;BME280;5085;48.092;11.484;2023-02-19T03:14:50;95444.66;;;9.09;100.00
10093;BME280;5085;48.092;11.484;2023-02-19T03:17:59;95460.94;;;8.97;100.00
10093;BME280;5085;48.092;11.484;2023-02-19T03:20:48;95457.63;;;8.90;100.00
10093;BME280;5085;48.092;11.484;2023-02-19T03:23:17;95457.03;;;8.83;100.00
10093;BME280;5085;48.092;11.484;2023-02-19T03:25:45;95451.06;;;8.76;100.00
10093;BME280;5085;48.092;11.484;2023-02-19T03:28:39;95446.16;;;8.68;100.00
10093;BME280;5085;48.092;11.484;2023-02-19T03:31:27;95457.91;;;8.62;100.00
10093;BME280;5085;48.092;11.484;2023-02-19T03:34:00;95457.88;;;8.57;100.00
10093;BME280;5085;48.092;11.484;2023-02-19T03:36:41;95460.25;;;8.53;100.00
10093;BME280;5085;48.092;11.484;2023-02-19T03:39:13;95467.44;;;8.47;100.00
10093;BME280;5085;48.092;11.484;2023-02-19T03:44:44;95455.28;;;8.40;100.00
10093;BME280;5085;48.092;11.484;2023-02-19T03:47:25;95452.25;;;8.36;100.00
10093;BME280;5085;48.092;11.484;2023-02-19T03:50:01;95457.34;;;8.33;100.00
10093;BME280;5085;48.092;11.484;2023-02-19T03:52:40;95456.22;;;8.29;100.00
10093;BME280;5085;48.092;11.484;2023-02-19T03:55:28;95458.03;;;8.23;100.00
10093;BME280;5085;48.092;11.484;2023-02-19T03:58:02;95447.81;;;8.20;100.00
10093;BME280;5085;48.092;11.484;2023-02-19T04:00:38;95446.16;;;8.19;100.00
10093;BME280;5085;48.092;11.484;2023-02-19T04:03:12;95452.06;;;8.16;100.00
10093;BME280;5085;48.092;11.484;2023-02-19T04:05:45;95446.91;;;8.14;100.00
10093;BME280;5085;48.092;11.484;2023-02-19T04:08:17;95463.28;;;8.13;100.00
10093;BME280;5085;48.092;11.484;2023-02-19T04:10:50;95446.63;;;8.11;100.00
10093;BME280;5085;48.092;11.484;2023-02-19T04:13:42;95437.44;;;8.07;100.00
10093;BME280;5085;48.092;11.484;2023-02-19T04:16:19;95446.00;;;8.04;100.00
10093;BME280;5085;48.092;11.484;2023-02-19T04:18:49;95435.53;;;8.02;100.00
10093;BME280;5085;48.092;11.484;2023-02-19T04:21:18;95431.47;;;7.99;100.00
10093;BME280;5085;48.092;11.484;2023-02-19T04:23:45;95435.72;;;7.95;100.00
10093;BME280;5085;48.092;11.484;2023-02-19T04:26:12;95422.31;;;7.95;100.00
10093;BME280;5085;48.092;11.484;2023-02-19T04:28:40;95408.59;;;7.92;100.00
10093;BME280;5085;48.092;11.484;2023-02-19T04:31:07;95412.34;;;7.91;100.00
10093;BME280;5085;48.092;11.484;2023-02-19T04:33:34;95422.75;;;7.87;100.00
10093;BME280;5085;48.092;11.484;2023-02-19T04:36:00;95422.50;;;7.89;100.00
10093;BME280;5085;48.092;11.484;2023-02-19T04:38:26;95413.91;;;7.87;100.00
10093;BME280;5085;48.092;11.484;2023-02-19T04:40:52;95425.94;;;7.84;100.00
10093;BME280;5085;48.092;11.484;2023-02-19T04:43:18;95430.75;;;7.82;100.00
10093;BME280;5085;48.092;11.484;2023-02-19T04:45:44;95436.91;;;7.83;100.00
10093;BME280;5085;48.092;11.484;2023-02-19T04:48:10;95439.81;;;7.81;100.00
10093;BME280;5085;48.092;11.484;2023-02-19T04:50:38;95441.97;;;7.79;100.00
10093;BME280;5085;48.092;11.484;2023-02-19T04:53:05;95437.66;;;7.78;100.00
10093;BME280;5085;48.092;11.484;2023-02-19T04:55:31;95451.28;;;7.76;100.00
10093;BME280;5085;48.092;11.484;2023-02-19T04:57:57;95451.06;;;7.78;100.00
10093;BME280;5085;48.092;11.484;2023-02-19T05:00:23;95453.97;;;7.76;100.00
10093;BME280;5085;48.092;11.484;2023-02-19T05:02:49;95459.34;;;7.76;100.00
10093;BME280;5085;48.092;11.484;2023-02-19T05:05:15;95452.94;;;7.78;100.00
10093;BME280;5085;48.092;11.484;2023-02-19T05:07:41;95459.09;;;7.78;100.00
10093;BME280;5085;48.092;11.484;2023-02-19T05:10:07;95454.56;;;7.79;100.00
10093;BME280;5085;48.092;11.484;2023-02-19T05:12:33;95460.47;;;7.81;100.00
10093;BME280;5085;48.092;11.484;2023-02-19T05:14:59;95453.22;;;7.81;100.00
10093;BME280;5085;48.092;11.484;2023-02-19T05:17:25;95446.84;;;7.82;100.00
10093;BME280;5085;48.092;11.484;2023-02-19T05:19:51;95457.56;;;7.82;100.00
10093;BME280;5085;48.092;11.484;2023-02-19T05:22:17;95451.13;;;7.83;100.00
10093;BME280;5085;48.092;11.484;2023-02-19T05:24:43;95455.41;;;7.84;100.00
10093;BME280;5085;48.092;11.484;2023-02-19T05:27:09;95455.41;;;7.84;100.00
10093;BME280;5085;48.092;11.484;2023-02-19T05:29:35;95465.06;;;7.85;100.00
10093;BME280;5085;48.092;11.484;2023-02-19T05:32:01;95447.97;;;7.86;100.00
10093;BME280;5085;48.092;11.484;2023-02-19T05:34:27;95477.19;;;7.88;100.00
10093;BME280;5085;48.092;11.484;2023-02-19T05:36:53;95475.56;;;7.87;100.00
10093;BME280;5085;48.092;11.484;2023-02-19T05:39:19;95469.94;;;7.88;100.00
10093;BME280;5085;48.092;11.484;2023-02-19T05:41:45;95473.69;;;7.87;100.00
10093;BME280;5085;48.092;11.484;2023-02-19T05:44:11;95469.41;;;7.86;100.00
10093;BME280;5085;48.092;11.484;2023-02-19T05:46:37;95484.97;;;7.89;100.00
10093;BME280;5085;48.092;11.484;2023-02-19T05:49:03;95482.28;;;7.89;100.00
10093;BME280;5085;48.092;11.484;2023-02-19T05:51:29;95466.78;;;7.91;100.00
10093;BME280;5085;48.092;11.484;2023-02-19T05:53:56;95491.47;;;7.93;100.00
10093;BME280;5085;48.092;11.484;2023-02-19T05:56:27;95483.19;;;7.95;100.00
10093;BME280;5085;48.092;11.484;2023-02-19T05:58:54;95495.25;;;7.97;100.00
10093;BME280;5085;48.092;11.484;2023-02-19T06:01:24;95495.25;;;7.97;100.00
10093;BME280;5085;48.092;11.484;2023-02-19T06:03:50;95497.94;;;7.97;100.00
10093;BME280;5085;48.092;11.484;2023-02-19T06:06:19;95498.53;;;7.99;100.00
10093;BME280;5085;48.092;11.484;2023-02-19T06:08:48;95504.44;;;8.01;100.00
10093;BME280;5085;48.092;11.484;2023-02-19T06:11:16;95513.06;;;8.04;100.00
10093;BME280;5085;48.092;11.484;2023-02-19T06:13:42;95510.59;;;8.02;100.00
10093;BME280;5085;48.092;11.484;2023-02-19T06:16:08;95508.50;;;8.04;100.00
10093;BME280;5085;48.092;11.484;2023-02-19T06:18:35;95508.25;;;8.06;100.00
10093;BME280;5085;48.092;11.484;2023-02-19T06:21:06;95508.00;;;8.07;100.00
10093;BME280;5085;48.092;11.484;2023-02-19T06:23:33;95505.88;;;8.09;100.00
10093;BME280;5085;48.092;11.484;2023-02-19T06:26:07;95514.19;;;8.08;100.00
10093;BME280;5085;48.092;11.484;2023-02-19T06:28:33;95520.34;;;8.08;100.00
10093;BME280;5085;48.092;11.484;2023-02-19T06:30:59;95519.84;;;8.11;100.00
10093;BME280;5085;48.092;11.484;2023-02-19T06:33:26;95520.69;;;8.12;100.00
10093;BME280;5085;48.092;11.484;2023-02-19T06:35:53;95525.19;;;8.11;100.00
10093;BME280;5085;48.092;11.484;2023-02-19T06:38:22;95533.81;;;8.13;100.00
10093;BME280;5085;48.092;11.484;2023-02-19T06:40:48;95546.97;;;8.15;100.00
10093;BME280;5085;48.092;11.484;2023-02-19T06:43:14;95548.63;;;8.16;100.00
10093;BME280;5085;48.092;11.484;2023-02-19T06:45:41;95542.25;;;8.22;100.00
10093;BME280;5085;48.092;11.484;2023-02-19T06:48:07;95540.94;;;8.24;100.00
10093;BME280;5085;48.092;11.484;2023-02-19T06:50:33;95534.25;;;8.27;100.00
10093;BME280;5085;48.092;11.484;2023-02-19T06:52:59;95539.13;;;8.30;100.00
10093;BME280;5085;48.092;11.484;2023-02-19T06:55:25;95557.41;;;8.33;100.00
10093;BME280;5085;48.092;11.484;2023-02-19T06:57:51;95551.88;;;8.40;100.00
10093;BME280;5085;48.092;11.484;2023-02-19T07:00:23;95547.16;;;8.47;100.00
10093;BME280;5085;48.092;11.484;2023-02-19T07:02:56;95553.13;;;8.54;100.00
10093;BME280;5085;48.092;11.484;2023-02-19T07:05:22;95553.25;;;8.64;100.00
10093;BME280;5085;48.092;11.484;2023-02-19T07:07:48;95564.34;;;8.73;100.00
10093;BME280;5085;48.092;11.484;2023-02-19T07:10:15;95552.09;;;8.82;100.00
10093;BME280;5085;48.092;11.484;2023-02-19T07:12:41;95561.56;;;8.90;100.00
10093;BME280;5085;48.092;11.484;2023-02-19T07:15:07;95578.31;;;8.97;100.00
10093;BME280;5085;48.092;11.484;2023-02-19T07:17:36;95575.94;;;9.00;100.00
10093;BME280;5085;48.092;11.484;2023-02-19T07:20:02;95597.97;;;9.02;100.00
10093;BME280;5085;48.092;11.484;2023-02-19T07:22:28;95590.72;;;9.03;100.00
10093;BME280;5085;48.092;11.484;2023-02-19T07:24:54;95591.78;;;9.02;100.00
10093;BME280;5085;48.092;11.484;2023-02-19T07:27:20;95592.28;;;8.99;100.00
10093;BME280;5085;48.092;11.484;2023-02-19T07:29:46;95598.97;;;8.96;100.00
10093;BME280;5085;48.092;11.484;2023-02-19T07:32:12;95608.66;;;8.97;100.00
10093;BME280;5085;48.092;11.484;2023-02-19T07:34:38;95599.22;;;8.95;100.00
10093;BME280;5085;48.092;11.484;2023-02-19T07:37:04;95596.09;;;9.03;100.00
10093;BME280;5085;48.092;11.484;2023-02-19T07:39:30;95606.06;;;9.08;100.00
10093;BME280;5085;48.092;11.484;2023-02-19T07:41:56;95611.44;;;9.08;100.00
10093;BME280;5085;48.092;11.484;2023-02-19T07:44:26;95613.88;;;9.09;100.00
10093;BME280;5085;48.092;11.484;2023-02-19T07:46:52;95608.75;;;9.08;100.00
10093;BME280;5085;48.092;11.484;2023-02-19T07:49:18;95618.69;;;9.07;100.00
10093;BME280;5085;48.092;11.484;2023-02-19T07:51:44;95620.84;;;9.05;100.00
10093;BME280;5085;48.092;11.484;2023-02-19T07:54:10;95633.44;;;9.05;100.00
10093;BME280;5085;48.092;11.484;2023-02-19T07:56:36;95629.66;;;9.00;100.00
10093;BME280;5085;48.092;11.484;2023-02-19T07:59:02;95626.88;;;8.95;100.00
10093;BME280;5085;48.092;11.484;2023-02-19T08:01:28;95628.22;;;8.93;100.00
10093;BME280;5085;48.092;11.484;2023-02-19T08:04:13;95631.41;;;8.90;100.00
10093;BME280;5085;48.092;11.484;2023-02-19T08:06:40;95638.81;;;8.83;100.00
10093;BME280;5085;48.092;11.484;2023-02-19T08:09:06;95623.22;;;8.80;100.00
10093;BME280;5085;48.092;11.484;2023-02-19T08:11:35;95629.66;;;8.79;100.00
10093;BME280;5085;48.092;11.484;2023-02-19T08:14:24;95641.13;;;8.74;100.00
10093;BME280;5085;48.092;11.484;2023-02-19T08:16:51;95647.56;;;8.73;100.00
10093;BME280;5085;48.092;11.484;2023-02-19T08:19:18;95636.28;;;8.71;100.00
10093;BME280;5085;48.092;11.484;2023-02-19T08:21:44;95648.88;;;8.70;100.00
10093;BME280;5085;48.092;11.484;2023-02-19T08:24:10;95659.88;;;8.69;100.00
10093;BME280;5085;48.092;11.484;2023-02-19T08:26:37;95671.38;;;8.64;100.00
10093;BME280;5085;48.092;11.484;2023-02-19T08:29:04;95663.25;;;8.59;100.00
10093;BME280;5085;48.092;11.484;2023-02-19T08:31:31;95665.28;;;8.52;100.00
10093;BME280;5085;48.092;11.484;2023-02-19T08:33:57;95666.59;;;8.49;100.00
10093;BME280;5085;48.092;11.484;2023-02-19T08:36:23;95677.59;;;8.48;100.00
10093;BME280;5085;48.092;11.484;2023-02-19T08:38:49;95679.19;;;8.49;100.00
10093;BME280;5085;48.092;11.484;2023-02-19T08:41:15;95670.72;;;8.57;100.00
10093;BME280;5085;48.092;11.484;2023-02-19T08:43:42;95683.41;;;8.62;100.00
10093;BME280;5085;48.092;11.484;2023-02-19T08:46:11;95669.81;;;8.68;100.00
10093;BME280;5085;48.092;11.484;2023-02-19T08:48:37;95681.19;;;8.75;100.00
10093;BME280;5085;48.092;11.484;2023-02-19T08:51:06;95679.09;;;8.83;100.00
10093;BME280;5085;48.092;11.484;2023-02-19T08:53:34;95687.75;;;8.85;100.00
10093;BME280;5085;48.092;11.484;2023-02-19T08:56:11;95693.34;;;8.83;100.00
10093;BME280;5085;48.092;11.484;2023-02-19T08:58:38;95690.75;;;8.88;100.00
10093;BME280;5085;48.092;11.484;2023-02-19T09:01:12;95682.91;;;9.09;100.00
10093;BME280;5085;48.092;11.484;2023-02-19T09:03:39;95686.94;;;9.33;100.00
10093;BME280;5085;48.092;11.484;2023-02-19T09:06:05;95702.13;;;9.44;100.00
10093;BME280;5085;48.092;11.484;2023-02-19T09:08:31;95702.13;;;9.44;100.00
10093;BME280;5085;48.092;11.484;2023-02-19T09:10:59;95712.28;;;9.42;100.00
10093;BME280;5085;48.092;11.484;2023-02-19T09:13:26;95712.25;;;9.37;100.00
10093;BME280;5085;48.092;11.484;2023-02-19T09:15:52;95706.63;;;9.39;100.00
10093;BME280;5085;48.092;11.484;2023-02-19T09:18:18;95717.13;;;9.40;100.00
10093;BME280;5085;48.092;11.484;2023-02-19T09:20:50;95712.88;;;9.44;100.00
10093;BME280;5085;48.092;11.484;2023-02-19T09:23:16;95720.34;;;9.42;100.00
10093;BME280;5085;48.092;11.484;2023-02-19T09:25:45;95733.00;;;9.42;100.00
10093;BME280;5085;48.092;11.484;2023-02-19T09:28:11;95739.25;;;9.47;100.00
10093;BME280;5085;48.092;11.484;2023-02-19T09:30:37;95732.72;;;9.65;100.00
10093;BME280;5085;48.092;11.484;2023-02-19T09:33:04;95726.88;;;9.73;100.00
10093;BME280;5085;48.092;11.484;2023-02-19T09:35:30;95741.00;;;10.18;100.00
10093;BME280;5085;48.092;11.484;2023-02-19T09:37:58;95732.72;;;10.62;100.00
10093;BME280;5085;48.092;11.484;2023-02-19T09:40:24;95731.72;;;10.73;100.00
10093;BME280;5085;48.092;11.484;2023-02-19T09:42:50;95733.78;;;10.61;100.00
10093;BME280;5085;48.092;11.484;2023-02-19T09:45:22;95732.00;;;10.34;100.00
10093;BME280;5085;48.092;11.484;2023-02-19T09:47:52;95739.88;;;10.14;100.00
10093;BME280;5085;48.092;11.484;2023-02-19T09:50:22;95735.44;;;9.97;100.00
10093;BME280;5085;48.092;11.484;2023-02-19T09:52:55;95738.81;;;9.83;100.00
10093;BME280;5085;48.092;11.484;2023-02-19T09:55:29;95733.88;;;9.74;100.00
10093;BME280;5085;48.092;11.484;2023-02-19T09:57:59;95738.94;;;9.71;100.00
10093;BME280;5085;48.092;11.484;2023-02-19T10:00:29;95738.41;;;9.69;100.00
10093;BME280;5085;48.092;11.484;2023-02-19T10:03:03;95753.97;;;9.67;100.00
10093;BME280;5085;48.092;11.484;2023-02-19T10:05:30;95761.50;;;9.65;100.00
10093;BME280;5085;48.092;11.484;2023-02-19T10:07:57;95753.97;;;9.67;100.00
10093;BME280;5085;48.092;11.484;2023-02-19T10:10:29;95762.53;;;9.64;100.00
10093;BME280;5085;48.092;11.484;2023-02-19T10:13:20;95770.06;;;9.62;100.00
10093;BME280;5085;48.092;11.484;2023-02-19T10:15:52;95762.25;;;9.60;100.00
10093;BME280;5085;48.092;11.484;2023-02-19T10:18:26;95757.78;;;9.71;100.00
10093;BME280;5085;48.092;11.484;2023-02-19T10:20:53;95758.19;;;9.85;100.00
10093;BME280;5085;48.092;11.484;2023-02-19T10:23:20;95773.31;;;9.91;100.00
10093;BME280;5085;48.092;11.484;2023-02-19T10:25:57;95755.78;;;9.88;100.00
10093;BME280;5085;48.092;11.484;2023-02-19T10:28:30;95757.47;;;9.94;100.00
10093;BME280;5085;48.092;11.484;2023-02-19T10:31:03;95769.94;;;10.06;100.00
10093;BME280;5085;48.092;11.484;2023-02-19T10:33:30;95764.06;;;10.78;99.87
10093;BME280;5085;48.092;11.484;2023-02-19T10:36:04;95768.13;;;12.32;86.48
10093;BME280;5085;48.092;11.484;2023-02-19T10:38:36;95765.16;;;12.79;81.97
10093;BME280;5085;48.092;11.484;2023-02-19T10:41:46;95772.38;;;13.09;77.92
10093;BME280;5085;48.092;11.484;2023-02-19T10:44:23;95757.31;;;13.63;71.31
10093;BME280;5085;48.092;11.484;2023-02-19T10:46:54;95748.44;;;15.28;64.14
10093;BME280;5085;48.092;11.484;2023-02-19T10:49:25;95757.41;;;16.66;55.28
10093;BME280;5085;48.092;11.484;2023-02-19T10:51:59;95756.56;;;17.72;51.81
10093;BME280;5085;48.092;11.484;2023-02-19T10:54:30;95747.38;;;18.54;50.22
10093;BME280;5085;48.092;11.484;2023-02-19T11:00:25;95746.31;;;16.62;51.85
10093;BME280;5085;48.092;11.484;2023-02-19T11:03:12;95759.81;;;15.78;54.14
10093;BME280;5085;48.092;11.484;2023-02-19T11:06:11;95745.31;;;14.92;55.27
10093;BME280;5085;48.092;11.484;2023-02-19T11:08:48;95745.84;;;14.25;58.85
10093;BME280;5085;48.092;11.484;2023-02-19T11:11:36;95734.34;;;13.60;62.30
10093;BME280;5085;48.092;11.484;2023-02-19T11:14:18;95738.56;;;13.12;66.69
10093;BME280;5085;48.092;11.484;2023-02-19T11:16:52;95728.94;;;12.80;68.39
10093;BME280;5085;48.092;11.484;2023-02-19T11:20:01;95742.41;;;12.85;71.77
10093;BME280;5085;48.092;11.484;2023-02-19T11:22:37;95737.28;;;12.89;67.53
10093;BME280;5085;48.092;11.484;2023-02-19T11:27:55;95751.34;;;12.86;68.47
10093;BME280;5085;48.092;11.484;2023-02-19T11:30:45;95739.69;;;12.90;68.08
10093;BME280;5085;48.092;11.484;2023-02-19T11:33:23;95745.97;;;12.65;69.14
10093;BME280;5085;48.092;11.484;2023-02-19T11:36:31;95747.31;;;12.63;71.15
10093;BME280;5085;48.092;11.484;2023-02-19T11:39:01;95743.97;;;13.12;70.57
10093;BME280;5085;48.092;11.484;2023-02-19T11:46:58;95732.84;;;17.31;51.75
10093;BME280;5085;48.092;11.484;2023-02-19T11:52:18;95731.69;;;16.07;54.70
10093;BME280;5085;48.092;11.484;2023-02-19T11:54:59;95737.34;;;15.91;55.33
10093;BME280;5085;48.092;11.484;2023-02-19T11:57:43;95741.38;;;15.51;56.49
10093;BME280;5085;48.092;11.484;2023-02-19T12:00:26;95734.59;;;15.06;58.54
10093;BME280;5085;48.092;11.484;2023-02-19T12:14:34;95747.81;;;12.90;65.93
10093;BME280;5085;48.092;11.484;2023-02-19T12:26:01;95757.03;;;12.79;62.56
10093;BME280;5085;48.092;11.484;2023-02-19T12:29:06;95750.03;;;12.63;61.09
10093;BME280;5085;48.092;11.484;2023-02-19T12:31:51;95762.72;;;12.26;62.13
10093;BME280;5085;48.092;11.484;2023-02-19T12:37:11;95771.59;;;11.86;65.05
10093;BME280;5085;48.092;11.484;2023-02-19T12:43:11;95767.19;;;11.75;65.89
10093;BME280;5085;48.092;11.484;2023-02-19T12:45:48;95775.06;;;11.82;66.15
10093;BME280;5085;48.092;11.484;2023-02-19T12:53:46;95812.41;;;11.42;73.56
10093;BME280;5085;48.092;11.484;2023-02-19T12:56:19;95799.84;;;11.11;77.18
10093;BME280;5085;48.092;11.484;2023-02-19T12:58:49;95806.22;;;10.94;80.17
10093;BME280;5085;48.092;11.484;2023-02-19T13:01:25;95798.41;;;10.93;79.63
10093;BME280;5085;48.092;11.484;2023-02-19T13:04:12;95792.75;;;10.99;77.60
10093;BME280;5085;48.092;11.484;2023-02-19T13:06:42;95790.69;;;11.17;75.80
10093;BME280;5085;48.092;11.484;2023-02-19T13:09:28;95791.06;;;11.31;73.37
10093;BME280;5085;48.092;11.484;2023-02-19T13:14:36;95785.41;;;11.37;71.44
10093;BME280;5085;48.092;11.484;2023-02-19T13:17:21;95786.63;;;11.72;68.70
10093;BME280;5085;48.092;11.484;2023-02-19T13:19:51;95798.09;;;12.20;65.93
10093;BME280;5085;48.092;11.484;2023-02-19T13:22:34;95796.22;;;12.31;63.72
10093;BME280;5085;48.092;11.484;2023-02-19T13:25:21;95809.44;;;12.27;61.67
10093;BME280;5085;48.092;11.484;2023-02-19T13:27:59;95816.97;;;12.05;61.77
10093;BME280;5085;48.092;11.484;2023-02-19T13:36:19;95797.41;;;11.72;64.33
10093;BME280;5085;48.092;11.484;2023-02-19T13:38:48;95804.38;;;11.52;65.58
10093;BME280;5085;48.092;11.484;2023-02-19T13:44:19;95792.72;;;12.40;63.61
10093;BME280;5085;48.092;11.484;2023-02-19T13:46:47;95792.72;;;12.40;63.29
10093;BME280;5085;48.092;11.484;2023-02-19T13:58:35;95829.69;;;10.62;81.03
10093;BME280;5085;48.092;11.484;2023-02-19T14:01:06;95831.50;;;10.24;86.75
10093;BME280;5085;48.092;11.484;2023-02-19T14:03:43;95812.91;;;9.95;87.15
10093;BME280;5085;48.092;11.484;2023-02-19T14:06:13;95822.19;;;9.83;88.06
10093;BME280;5085;48.092;11.484;2023-02-19T14:08:54;95805.38;;;9.70;89.85
10093;BME280;5085;48.092;11.484;2023-02-19T14:14:24;95803.16;;;9.40;97.10
10093;BME280;5085;48.092;11.484;2023-02-19T14:16:54;95807.06;;;9.33;100.00
10093;BME280;5085;48.092;11.484;2023-02-19T14:19:43;95816.38;;;9.25;100.00
10093;BME280;5085;48.092;11.484;2023-02-19T14:25:43;95820.72;;;9.26;100.00
10093;BME280;5085;48.092;11.484;2023-02-19T14:33:54;95806.22;;;9.27;99.04
10093;BME280;5085;48.092;11.484;2023-02-19T14:36:41;95825.25;;;9.25;98.93
10093;BME280;5085;48.092;11.484;2023-02-19T14:39:28;95823.88;;;9.23;98.80
10093;BME280;5085;48.092;11.484;2023-02-19T14:42:02;95821.13;;;9.18;95.41
10093;BME280;5085;48.092;11.484;2023-02-19T14:44:35;95802.81;;;9.15;95.15
10093;BME280;5085;48.092;11.484;2023-02-19T14:47:08;95807.72;;;9.18;95.42
10093;BME280;5085;48.092;11.484;2023-02-19T14:50:05;95802.34;;;9.18;94.34
10093;BME280;5085;48.092;11.484;2023-02-19T14:52:41;95794.81;;;9.20;91.95
10093;BME280;5085;48.092;11.484;2023-02-19T14:55:32;95809.13;;;9.25;89.43
10093;BME280;5085;48.092;11.484;2023-02-19T14:58:10;95812.13;;;9.29;89.72
10093;BME280;5085;48.092;11.484;2023-02-19T15:00:39;95823.94;;;9.28;88.67
10093;BME280;5085;48.092;11.484;2023-02-19T15:05:57;95820.13;;;9.24;87.61
10093;BME280;5085;48.092;11.484;2023-02-19T15:08:30;95827.38;;;9.23;86.71